createdAt,value
2018-09-17T00:02:50.684Z,1008.1
2018-09-17T00:12:50.972Z,1008
2018-09-17T00:22:51.133Z,1008
2018-09-17T00:32:51.288Z,1008.1
2018-09-17T00:42:51.507Z,1007.8
2018-09-17T00:52:53.028Z,1007.9
2018-09-17T01:02:53.415Z,1008
2018-09-17T01:32:59.392Z,1008
2018-09-17T01:42:59.609Z,1008
2018-09-17T01:53:00.172Z,1008
2018-09-17T02:02:59.954Z,1007.8
2018-09-17T02:23:04.458Z,1007.7
2018-09-17T02:43:09.314Z,1007.8
2018-09-17T03:03:12.396Z,1007.8
2018-09-17T03:13:12.686Z,1007.7
2018-09-17T03:23:12.807Z,1007.9
2018-09-17T03:33:13.044Z,1008.1
2018-09-17T03:43:13.049Z,1008.2
2018-09-17T03:53:13.419Z,1007.9
2018-09-17T04:03:13.810Z,1008
2018-09-17T04:23:17.353Z,1007.8
2018-09-17T04:33:17.816Z,1007.8
2018-09-17T04:53:20.787Z,1007.8
2018-09-17T05:03:21.455Z,1008.1
2018-09-17T05:13:22.006Z,1008.2
2018-09-17T05:23:21.876Z,1008.2
2018-09-17T05:33:23.646Z,1008.2
2018-09-17T05:43:24.189Z,1008.3
2018-09-17T05:53:25.302Z,1008.4
2018-09-17T06:13:28.753Z,1008.5
2018-09-17T06:23:29.197Z,1008.4
2018-09-17T06:33:29.779Z,1008.4
2018-09-17T06:43:30.457Z,1008.5
2018-09-17T06:53:31.071Z,1008.7
2018-09-17T07:03:31.630Z,1008.8
2018-09-17T07:13:31.838Z,1008.9
2018-09-17T07:23:32.409Z,1008.7
2018-09-17T07:33:33.153Z,1008.7
2018-09-17T07:43:34.448Z,1008.6
2018-09-17T07:53:35.291Z,1008.6
2018-09-17T08:03:36.377Z,1008.6
2018-09-17T08:23:40.284Z,1008.6
2018-09-17T08:33:40.752Z,1008.5
2018-09-17T08:53:43.930Z,1008.3
2018-09-17T09:03:44.512Z,1008.3
2018-09-17T09:13:44.643Z,1008.4
2018-09-17T09:23:45.319Z,1008.4
2018-09-17T09:33:48.182Z,1008.3
2018-09-17T10:03:54.889Z,1008.2
2018-09-17T10:13:56.182Z,1008.2
2018-09-17T10:23:56.688Z,1008.1
2018-09-17T10:33:59.742Z,1008.1
2018-09-17T10:44:00.749Z,1007.9
2018-09-17T10:54:01.433Z,1007.9
2018-09-17T11:04:04.518Z,1007.7
2018-09-17T11:14:05.034Z,1007.6
2018-09-17T11:24:05.401Z,1007.7
2018-09-17T11:44:10.031Z,1007.4
2018-09-17T11:54:10.490Z,1007.4
2018-09-17T12:04:11.016Z,1007.3
2018-09-17T12:14:11.105Z,1007.2
2018-09-17T12:24:11.794Z,1007.1
2018-09-17T12:34:12.181Z,1007
2018-09-17T12:44:12.483Z,1006.9
2018-09-17T12:54:12.969Z,1006.9
2018-09-17T13:14:16.759Z,1006.6
2018-09-17T13:24:16.915Z,1006.5
2018-09-17T13:34:23.703Z,1006.4
2018-09-17T13:44:27.971Z,1006.3
2018-09-17T14:04:33.399Z,1006.2
2018-09-17T14:14:33.541Z,1006.1
2018-09-17T14:24:33.748Z,1006.1
2018-09-17T14:34:34.018Z,1006.1
2018-09-17T14:44:34.503Z,1005.8
2018-09-17T14:54:34.970Z,1005.7
2018-09-17T15:04:35.191Z,1005.7
2018-09-17T15:14:35.882Z,1005.5
2018-09-17T15:24:36.370Z,1005.5
2018-09-17T15:34:36.679Z,1005.4
2018-09-17T15:54:39.421Z,1005.3
2018-09-17T16:04:40.050Z,1005
2018-09-17T16:24:42.671Z,1005
2018-09-17T16:34:43.162Z,1005
2018-09-17T16:54:46.533Z,1004.9
2018-09-17T17:04:46.866Z,1005
2018-09-17T17:14:46.701Z,1005
2018-09-17T17:24:46.826Z,1005
2018-09-17T17:34:49.545Z,1005
2018-09-17T17:54:54.639Z,1005
2018-09-17T18:14:59.234Z,1004.9
2018-09-17T18:25:00.531Z,1004.9
2018-09-17T18:35:00.783Z,1004.9
2018-09-17T18:45:00.905Z,1004.9
2018-09-17T18:55:01.443Z,1004.9
2018-09-17T19:05:01.645Z,1004.9
2018-09-17T19:25:04.508Z,1005
2018-09-17T19:35:05.401Z,1004.9
2018-09-17T19:45:05.925Z,1004.8
2018-09-17T19:55:06.059Z,1004.8
2018-09-17T20:05:06.873Z,1004.7
2018-09-17T20:35:12.767Z,1004.7
2018-09-17T20:45:13.190Z,1004.6
2018-09-17T20:55:13.458Z,1004.5
2018-09-17T21:05:13.820Z,1004.6
2018-09-17T21:15:16.796Z,1004.5
2018-09-17T21:25:17.221Z,1004.4
2018-09-17T21:35:17.414Z,1004.3
2018-09-17T21:55:20.552Z,1004.3
2018-09-17T22:05:20.814Z,1004.3
2018-09-17T22:25:23.949Z,1004.2
2018-09-17T22:35:24.220Z,1004.1
2018-09-17T22:45:24.167Z,1004.1
2018-09-17T22:55:24.121Z,1004
2018-09-17T23:05:24.512Z,1004
2018-09-17T23:15:25.256Z,1004
2018-09-17T23:25:25.788Z,1004
2018-09-17T23:45:29.028Z,1003.7
